Time;durP1;ratioP1;P1;durP2;ratioP2;P2;SDS_P1;SDS_P2;PMS_P1;PMS_P2;Temp;Humidity;BMP_temperature;BMP_pressure;BME280_temperature;BME280_humidity;BME280_pressure;Samples;Min_cycle;Max_cycle;Signal;HPM_P1;HPM_P2
2022/11/10 00:01:05;;;;;;;2.05;0.80;;;12.80;99.90;;;12.97;100.00;101222.13;5143276;28;20066;-70
2022/11/10 00:03:57;;;;;;;0.73;0.60;;;12.90;99.90;;;12.96;100.00;101227.31;5142778;28;20516;-70
2022/11/10 00:06:49;;;;;;;0.80;0.80;;;12.80;99.90;;;12.96;100.00;101229.94;5143122;28;20051;-70
2022/11/10 00:09:42;;;;;;;1.13;0.75;;;12.80;99.90;;;12.95;100.00;101243.84;5142677;28;20057;-70
2022/11/10 00:12:33;;;;;;;2.03;0.70;;;12.80;99.90;;;12.93;100.00;101235.97;5142857;28;20047;-71
2022/11/10 00:18:37;;;;;;;0.60;0.50;;;12.80;99.90;;;12.93;100.00;101235.97;5095363;28;20063;-70
2022/11/10 00:21:28;;;;;;;1.20;0.60;;;12.80;99.90;;;12.92;100.00;101243.78;5144694;28;20522;-70
2022/11/10 00:24:19;;;;;;;2.20;0.80;;;12.70;99.90;;;12.88;100.00;101247.13;5146642;28;20450;-71
2022/11/10 00:27:11;;;;;;;2.83;0.60;;;12.70;99.90;;;12.84;100.00;101253.06;5146098;28;20125;-70
2022/11/10 00:30:02;;;;;;;1.85;0.63;;;12.70;99.90;;;12.80;100.00;101264.31;5146048;28;20049;-72
2022/11/10 00:32:52;;;;;;;0.85;0.63;;;12.60;99.90;;;12.74;100.00;101265.88;5146081;28;20051;-70
2022/11/10 00:35:44;;;;;;;1.98;0.50;;;12.60;99.90;;;12.70;100.00;101268.31;5146105;28;20057;-71
2022/11/10 00:38:35;;;;;;;0.65;0.65;;;12.60;99.90;;;12.64;100.00;101269.00;5146110;28;20185;-71
2022/11/10 00:41:26;;;;;;;0.60;0.60;;;12.50;99.90;;;12.61;100.00;101275.88;5145989;28;20117;-70
2022/11/10 00:44:18;;;;;;;1.42;0.60;;;12.50;99.90;;;12.55;100.00;101273.03;5145937;28;20463;-70
2022/11/10 00:47:09;;;;;;;1.60;0.63;;;12.40;99.90;;;12.52;100.00;101268.63;5145767;28;20108;-70
2022/11/10 00:49:59;;;;;;;1.95;0.70;;;12.40;99.90;;;12.49;100.00;101274.59;5146094;28;20066;-70
2022/11/10 00:52:50;;;;;;;0.60;0.60;;;12.40;99.90;;;12.46;100.00;101278.84;5145691;28;20061;-70
2022/11/10 00:55:41;;;;;;;0.73;0.55;;;12.30;99.90;;;12.42;100.00;101274.34;5145648;28;20417;-70
2022/11/10 00:58:32;;;;;;;1.17;0.63;;;12.30;99.90;;;12.33;100.00;101277.53;5145348;28;20429;-70
2022/11/10 01:01:25;;;;;;;0.90;0.70;;;12.20;99.90;;;12.23;100.00;101286.75;5145353;28;20062;-70
2022/11/10 01:04:16;;;;;;;2.33;0.80;;;12.10;99.90;;;12.14;100.00;101286.44;5145592;28;20176;-70
2022/11/10 01:07:06;;;;;;;1.02;0.93;;;12.00;99.90;;;12.04;100.00;101284.31;5145410;28;20503;-74
2022/11/10 01:09:57;;;;;;;2.75;0.88;;;11.90;99.90;;;11.96;100.00;101283.16;5144933;28;20062;-71
2022/11/10 01:12:47;;;;;;;1.85;0.70;;;11.90;99.90;;;11.95;100.00;101299.66;5146142;28;20149;-71
2022/11/10 01:15:39;;;;;;;2.65;0.85;;;11.80;99.90;;;11.89;100.00;101307.28;5146002;28;20531;-70
2022/11/10 01:18:32;;;;;;;2.42;0.90;;;11.80;99.90;;;11.80;100.00;101309.47;5144893;28;20049;-70
2022/11/10 01:21:24;;;;;;;2.65;0.88;;;11.70;99.90;;;11.71;100.00;101307.41;5145268;28;20535;-70
2022/11/10 01:24:20;;;;;;;2.58;0.82;;;11.60;99.90;;;11.65;100.00;101305.47;5145552;28;20062;-70
2022/11/10 01:27:11;;;;;;;2.58;0.90;;;11.50;99.90;;;11.63;100.00;101308.84;5145338;28;20057;-71
2022/11/10 01:30:02;;;;;;;1.77;0.80;;;11.50;99.90;;;11.59;100.00;101313.06;5144594;28;20054;-70
2022/11/10 01:32:52;;;;;;;1.88;0.80;;;11.50;99.90;;;11.56;100.00;101319.91;5144490;28;20089;-70
2022/11/10 01:35:44;;;;;;;1.27;1.00;;;11.40;99.90;;;11.52;100.00;101315.38;5145432;28;20298;-70
2022/11/10 01:38:38;;;;;;;2.97;1.00;;;11.40;99.90;;;11.51;100.00;101314.50;5144700;28;20119;-70
2022/11/10 01:41:29;;;;;;;1.50;0.98;;;11.40;99.90;;;11.48;100.00;101317.00;5145117;28;20140;-71
2022/11/10 01:44:22;;;;;;;3.38;0.88;;;11.40;99.90;;;11.46;100.00;101322.97;5144842;28;20081;-71
2022/11/10 01:47:13;;;;;;;2.75;0.93;;;11.30;99.90;;;11.43;100.00;101322.84;5144676;28;20101;-69
2022/11/10 01:50:05;;;;;;;1.92;1.10;;;11.30;99.90;;;11.40;100.00;101319.28;5144456;28;20113;-70
2022/11/10 01:53:03;;;;;;;2.30;0.95;;;11.30;99.90;;;11.40;100.00;101323.59;5144456;28;20065;-70
2022/11/10 01:55:56;;;;;;;2.85;1.20;;;11.30;99.90;;;11.40;100.00;101334.06;5144763;28;20476;-70
2022/11/10 01:58:55;;;;;;;1.48;1.00;;;11.30;99.90;;;11.40;100.00;101323.59;5143800;28;20043;-71
2022/11/10 02:01:48;;;;;;;1.92;1.08;;;11.30;99.90;;;11.37;100.00;101326.13;5144371;28;20570;-71
2022/11/10 02:04:41;;;;;;;3.83;1.10;;;11.30;99.90;;;11.35;100.00;101330.38;5144708;28;20101;-71
2022/11/10 02:07:32;;;;;;;2.88;1.02;;;11.30;99.90;;;11.34;100.00;101325.97;5143935;28;20070;-70
2022/11/10 02:10:24;;;;;;;4.10;1.13;;;11.20;99.90;;;11.34;100.00;101331.19;5144357;28;20108;-70
2022/11/10 02:13:15;;;;;;;1.75;0.82;;;11.30;99.90;;;11.34;100.00;101333.81;5144163;28;20193;-71
2022/11/10 02:16:06;;;;;;;1.20;1.02;;;11.30;99.90;;;11.34;100.00;101337.28;5144412;28;20062;-72
2022/11/10 02:18:57;;;;;;;2.80;0.80;;;11.30;99.90;;;11.36;100.00;101340.00;5144231;28;20132;-70
2022/11/10 02:21:50;;;;;;;1.42;0.90;;;11.30;99.90;;;11.38;100.00;101344.44;5144274;28;20057;-70
2022/11/10 02:24:41;;;;;;;1.67;0.90;;;11.30;99.90;;;11.37;100.00;101350.50;5143933;28;20081;-70
2022/11/10 02:27:32;;;;;;;0.93;0.90;;;11.30;99.90;;;11.36;100.00;101353.94;5144251;28;20065;-70
2022/11/10 02:30:23;;;;;;;3.20;0.77;;;11.30;99.90;;;11.36;100.00;101358.28;5143696;28;20060;-70
2022/11/10 02:33:16;;;;;;;2.42;0.88;;;11.30;99.90;;;11.32;100.00;101352.00;5143723;28;20130;-71
2022/11/10 02:36:07;;;;;;;2.63;1.10;;;11.30;99.90;;;11.28;100.00;101365.78;5143901;28;20054;-71
2022/11/10 02:38:59;;;;;;;2.42;1.10;;;11.20;99.90;;;11.28;100.00;101370.09;5143495;28;20085;-71
2022/11/10 02:41:50;;;;;;;2.50;1.00;;;11.20;99.90;;;11.28;100.00;101370.09;5144188;28;20055;-70
2022/11/10 02:44:41;;;;;;;1.38;0.98;;;11.20;99.90;;;11.25;100.00;101370.88;5142546;28;20058;-70
2022/11/10 02:47:32;;;;;;;2.97;1.02;;;11.20;99.90;;;11.22;100.00;101377.69;5143959;28;20061;-70
2022/11/10 02:50:22;;;;;;;4.45;1.00;;;11.10;99.90;;;11.20;100.00;101372.38;5143608;28;20047;-70
2022/11/10 02:53:13;;;;;;;3.22;0.95;;;11.10;99.90;;;11.18;100.00;101383.59;5143290;28;20507;-71
2022/11/10 02:56:05;;;;;;;1.58;1.15;;;11.10;99.90;;;11.18;100.00;101378.38;5143489;28;20130;-70
2022/11/10 02:58:57;;;;;;;1.73;0.88;;;11.10;99.90;;;11.14;100.00;101378.25;5142465;28;20050;-70
2022/11/10 03:01:48;;;;;;;1.75;1.00;;;11.10;99.90;;;11.14;100.00;101383.47;5143719;28;20215;-70
2022/11/10 03:04:38;;;;;;;3.40;1.02;;;11.10;99.90;;;11.12;100.00;101379.91;5143250;28;20102;-71
2022/11/10 03:07:29;;;;;;;1.60;0.93;;;11.10;99.90;;;11.12;100.00;101387.72;5144135;28;20118;-70
2022/11/10 03:10:21;;;;;;;1.65;1.00;;;11.10;99.90;;;11.10;100.00;101389.41;5143363;28;20061;-70
2022/11/10 03:13:13;;;;;;;2.50;1.20;;;11.00;99.90;;;11.11;100.00;101388.56;5142942;28;20106;-72
2022/11/10 03:16:04;;;;;;;2.30;1.02;;;11.00;99.90;;;11.10;100.00;101386.78;5143515;28;20438;-71
2022/11/10 03:18:55;;;;;;;2.58;1.17;;;11.00;99.90;;;11.09;100.00;101400.66;5142860;28;20506;-72
2022/11/10 03:21:46;;;;;;;1.67;1.40;;;11.00;99.90;;;11.09;100.00;101416.31;5143451;28;20461;-70
2022/11/10 03:24:36;;;;;;;3.30;1.20;;;11.00;99.90;;;11.08;100.00;101418.84;5143492;28;20588;-71
2022/11/10 03:27:27;;;;;;;1.92;1.10;;;11.00;99.90;;;11.08;100.00;101421.44;5142553;28;20057;-70
2022/11/10 03:30:19;;;;;;;3.15;1.00;;;11.00;99.90;;;11.08;100.00;101421.44;5143394;28;20074;-71
2022/11/10 03:33:09;;;;;;;3.70;1.35;;;11.00;99.90;;;11.07;100.00;101415.34;5143264;28;20185;-71
2022/11/10 03:36:00;;;;;;;3.53;1.20;;;11.00;99.90;;;11.08;100.00;101424.06;5142983;28;20558;-71
2022/11/10 03:38:50;;;;;;;2.92;1.20;;;11.00;99.90;;;11.06;100.00;101433.53;5142750;28;20491;-70
2022/11/10 03:41:41;;;;;;;3.33;1.13;;;11.10;99.90;;;11.07;100.00;101432.72;5143142;28;20058;-70
2022/11/10 03:44:31;;;;;;;2.50;1.17;;;11.00;99.90;;;11.07;100.00;101428.38;5142535;28;20184;-69
2022/11/10 03:47:23;;;;;;;3.22;1.40;;;11.00;99.90;;;11.06;100.00;101431.84;5142605;28;20053;-70
2022/11/10 03:50:15;;;;;;;2.70;1.20;;;11.00;99.90;;;11.05;100.00;101419.63;5143271;28;20059;-70
2022/11/10 03:53:06;;;;;;;2.83;1.00;;;11.00;99.90;;;11.04;100.00;101433.50;5142828;28;20198;-70
2022/11/10 03:55:59;;;;;;;2.58;1.10;;;11.00;99.90;;;11.04;100.00;101428.28;5145350;28;20070;-69
2022/11/10 03:58:50;;;;;;;2.72;1.30;;;11.00;99.90;;;11.04;100.00;101443.03;5146230;28;20047;-71
2022/11/10 04:01:41;;;;;;;2.35;1.10;;;11.00;99.90;;;11.04;100.00;101454.38;5146302;28;20055;-71
2022/11/10 04:10:51;;;;;;;4.43;1.50;;;11.00;99.90;;;11.06;100.00;101446.59;5141430;28;20118;-71
2022/11/10 04:16:50;;;;;;;7.70;2.08;;;11.00;99.90;;;11.05;100.00;101463.97;5166952;28;20112;-72
2022/11/10 04:19:42;;;;;;;11.75;1.75;;;11.00;99.90;;;11.03;100.00;101467.34;5166207;28;20098;-71
2022/11/10 04:26:27;;;;;;;5.88;1.95;;;10.90;99.90;;;11.02;100.00;101473.38;5166313;28;20054;-71
2022/11/10 04:28:58;;;;;;;2.85;1.40;;;11.00;99.90;;;11.00;100.00;101478.53;5166258;28;20058;-71
2022/11/10 04:31:49;;;;;;;5.88;1.60;;;10.90;99.90;;;10.98;100.00;101490.63;5166348;28;20066;-70
2022/11/10 04:34:39;;;;;;;4.75;1.77;;;10.90;99.90;;;10.94;100.00;101486.06;5165742;28;20061;-70
2022/11/10 04:37:31;;;;;;;3.53;2.15;;;10.90;99.90;;;10.92;100.00;101492.97;5165899;28;20053;-71
2022/11/10 04:40:22;;;;;;;3.63;2.13;;;10.90;99.90;;;10.89;100.00;101495.44;5166008;28;20077;-72
2022/11/10 04:43:13;;;;;;;5.53;2.47;;;10.80;99.90;;;10.84;100.00;101508.28;5166202;28;20064;-71
2022/11/10 04:46:07;;;;;;;3.42;2.20;;;10.80;99.90;;;10.80;100.00;101511.53;5165993;28;20426;-71
2022/11/10 04:48:58;;;;;;;6.28;2.00;;;10.80;99.90;;;10.77;100.00;101521.84;5165645;28;20046;-71
2022/11/10 04:51:48;;;;;;;3.95;1.85;;;10.70;99.90;;;10.73;100.00;101521.63;5166202;28;20061;-70
2022/11/10 04:54:40;;;;;;;3.45;1.60;;;10.70;99.90;;;10.70;100.00;101525.00;5165850;28;20077;-72
2022/11/10 04:57:31;;;;;;;3.25;1.70;;;10.70;99.90;;;10.68;100.00;101528.34;5166005;28;20038;-71
2022/11/10 05:00:22;;;;;;;3.08;1.60;;;10.60;99.90;;;10.65;100.00;101536.06;5166029;28;20057;-71
2022/11/10 05:03:13;;;;;;;4.28;1.70;;;10.60;99.90;;;10.59;100.00;101527.13;5165628;28;20118;-71
2022/11/10 05:06:04;;;;;;;2.40;1.60;;;10.60;99.90;;;10.58;100.00;101540.97;5165581;28;20053;-71
2022/11/10 05:08:54;;;;;;;3.90;1.58;;;10.50;99.90;;;10.55;100.00;101540.81;5165115;28;20507;-71
2022/11/10 05:11:46;;;;;;;5.05;2.35;;;10.50;99.90;;;10.52;100.00;101545.91;5224621;23;20018;-73
2022/11/10 05:14:37;;;;;;;3.53;2.15;;;10.50;99.90;;;10.52;100.00;101553.72;5143625;28;20184;-72
2022/11/10 05:17:27;;;;;;;3.25;1.70;;;10.50;99.90;;;10.51;100.00;101559.75;5145283;28;20101;-73
2022/11/10 05:20:20;;;;;;;4.18;1.75;;;10.50;99.90;;;10.52;100.00;101561.53;5134615;28;20570;-73
2022/11/10 05:26:19;;;;;;;4.10;1.52;;;10.50;99.90;;;10.51;100.00;101584.94;5145387;28;20062;-72
2022/11/10 05:29:11;;;;;;;1.83;1.30;;;10.50;99.90;;;10.48;100.00;101569.13;5144524;28;20180;-72
2022/11/10 05:32:02;;;;;;;5.82;1.38;;;10.50;99.90;;;10.46;100.00;101562.97;5145526;28;20068;-72
2022/11/10 05:34:52;;;;;;;5.25;1.90;;;10.40;99.90;;;10.44;100.00;101578.53;5145289;28;20073;-73
2022/11/10 05:37:43;;;;;;;3.95;2.10;;;10.40;99.90;;;10.42;100.00;101582.78;5145029;28;20132;-72
2022/11/10 05:40:35;;;;;;;5.43;2.60;;;10.40;99.90;;;10.38;100.00;101578.25;5145330;28;20472;-72
2022/11/10 05:43:25;;;;;;;5.35;2.08;;;10.30;99.90;;;10.36;100.00;101598.09;5145299;28;20590;-71
2022/11/10 05:46:17;;;;;;;3.47;1.80;;;10.30;99.90;;;10.34;100.00;101594.53;5145504;28;20105;-72
2022/11/10 05:49:08;;;;;;;3.67;1.83;;;10.30;99.90;;;10.33;100.00;101606.69;5124354;28;20102;-73
2022/11/10 05:51:59;;;;;;;3.75;1.58;;;10.30;99.90;;;10.32;100.00;101599.69;5125579;29;20584;-74
2022/11/10 05:54:49;;;;;;;4.07;1.90;;;10.30;99.90;;;10.34;100.00;101602.38;5125318;29;20054;-71
2022/11/10 05:57:43;;;;;;;3.58;1.67;;;10.30;99.90;;;10.35;100.00;101605.88;5124609;28;20141;-72
2022/11/10 06:00:34;;;;;;;3.72;2.20;;;10.30;99.90;;;10.34;100.00;101610.19;5124974;29;20074;-73
2022/11/10 06:03:26;;;;;;;6.25;2.78;;;10.30;99.90;;;10.35;100.00;101604.16;5124714;29;20178;-73
2022/11/10 06:06:19;;;;;;;6.47;3.15;;;10.30;99.90;;;10.35;100.00;101613.69;5126338;28;20050;-72
2022/11/10 06:09:10;;;;;;;6.68;2.55;;;10.30;99.90;;;10.33;100.00;101616.22;5137689;28;20054;-73
2022/11/10 06:12:00;;;;;;;5.38;1.90;;;10.30;99.90;;;10.32;100.00;101620.53;5137500;28;20061;-71
2022/11/10 06:14:51;;;;;;;3.92;1.88;;;10.30;99.90;;;10.34;100.00;101633.66;5144716;28;20046;-72
2022/11/10 06:17:42;;;;;;;5.45;1.90;;;10.30;99.90;;;10.31;100.00;101634.41;5143936;28;20134;-72
2022/11/10 06:20:34;;;;;;;4.22;2.08;;;10.30;99.90;;;10.29;100.00;101641.22;5144425;28;20629;-72
2022/11/10 06:23:25;;;;;;;3.97;1.63;;;10.30;99.90;;;10.26;100.00;101645.41;5144365;28;20122;-73
2022/11/10 06:26:15;;;;;;;3.22;1.80;;;10.30;99.90;;;10.24;100.00;101647.06;5144438;28;20046;-72
2022/11/10 06:29:06;;;;;;;4.03;1.35;;;10.20;99.90;;;10.22;100.00;101651.25;5144104;28;20125;-73
2022/11/10 06:31:57;;;;;;;3.90;1.30;;;10.20;99.90;;;10.22;100.00;101653.84;5131745;28;20094;-73
2022/11/10 06:34:49;;;;;;;3.63;1.58;;;10.20;99.90;;;10.23;100.00;101668.69;5143819;28;20065;-72
2022/11/10 06:37:41;;;;;;;3.20;1.40;;;10.20;99.90;;;10.24;100.00;101674.00;5143292;28;20487;-72
2022/11/10 06:40:33;;;;;;;3.80;1.20;;;10.20;99.90;;;10.26;100.00;101681.91;5144061;28;20081;-73
2022/11/10 06:43:23;;;;;;;2.67;1.40;;;10.20;99.90;;;10.26;100.00;101679.28;5143694;28;20092;-72
2022/11/10 06:46:14;;;;;;;3.10;1.48;;;10.20;99.90;;;10.26;100.00;101681.91;5144241;28;20530;-72
2022/11/10 06:49:05;;;;;;;2.20;1.10;;;10.20;99.90;;;10.27;100.00;101683.69;5142626;28;20070;-55
2022/11/10 06:51:56;;;;;;;4.07;1.70;;;10.30;99.90;;;10.29;100.00;101692.44;5136330;28;20463;-57
2022/11/10 06:54:48;;;;;;;4.03;1.45;;;10.20;99.90;;;10.32;100.00;101692.63;5154730;28;20577;-55
2022/11/10 06:57:39;;;;;;;3.85;1.30;;;10.30;99.90;;;10.35;100.00;101692.75;5143380;28;20117;-58
2022/11/10 07:00:30;;;;;;;6.82;1.63;;;10.30;99.90;;;10.42;100.00;101700.06;5139312;28;20527;-56
2022/11/10 07:03:20;;;;;;;3.60;1.88;;;10.40;99.90;;;10.45;100.00;101713.28;5143274;28;20049;-56
2022/11/10 07:06:10;;;;;;;5.55;1.63;;;10.40;99.90;;;10.46;100.00;101715.06;5153096;28;20054;-56
2022/11/10 07:09:01;;;;;;;1.63;1.15;;;10.40;99.90;;;10.49;100.00;101717.78;5150835;28;20118;-56
2022/11/10 07:11:52;;;;;;;2.97;1.20;;;10.50;99.90;;;10.53;100.00;101722.34;5143391;28;20077;-59
2022/11/10 07:14:43;;;;;;;3.20;1.38;;;10.50;99.90;;;10.65;100.00;101729.00;5142026;28;20050;-62
2022/11/10 07:17:40;;;;;;;5.05;2.40;;;10.60;99.90;;;10.79;100.00;101733.19;5140565;28;20055;-57
2022/11/10 07:20:31;;;;;;;7.78;1.77;;;10.70;99.90;;;11.37;100.00;101736.84;5141210;28;20057;-58
2022/11/10 07:23:22;;;;;;;6.05;1.70;;;11.40;99.90;;;11.47;100.00;101740.75;5142356;28;20423;-57
2022/11/10 07:26:12;;;;;;;4.35;1.52;;;11.50;99.90;;;11.37;100.00;101742.06;5143753;28;20069;-59
2022/11/10 07:29:04;;;;;;;4.32;1.45;;;11.40;99.90;;;11.30;100.00;101746.94;5143865;28;20149;-59
2022/11/10 07:31:55;;;;;;;7.55;2.08;;;11.40;99.90;;;11.36;100.00;101758.56;5147447;28;20177;-59
2022/11/10 07:34:45;;;;;;;10.70;3.00;;;11.40;99.90;;;11.42;100.00;101760.56;5147623;28;20171;-59
2022/11/10 07:37:36;;;;;;;6.65;2.08;;;11.40;99.90;;;11.41;100.00;101764.91;5157123;28;20062;-59
2022/11/10 07:40:26;;;;;;;7.03;2.15;;;11.40;99.90;;;11.42;100.00;101773.63;5154734;28;20054;-59
2022/11/10 07:43:17;;;;;;;5.93;1.98;;;11.40;99.90;;;11.49;100.00;101777.41;5147147;28;20058;-59
2022/11/10 07:46:09;;;;;;;6.70;2.13;;;11.40;99.90;;;11.59;100.00;101780.50;5147263;28;20510;-61
2022/11/10 07:49:00;;;;;;;6.70;1.75;;;11.50;99.90;;;11.68;100.00;101774.81;5160560;28;20448;-61
2022/11/10 07:51:51;;;;;;;6.20;1.90;;;11.60;99.90;;;11.76;100.00;101783.91;5164558;28;20061;-59
2022/11/10 07:54:41;;;;;;;5.25;1.83;;;11.60;99.90;;;11.83;100.00;101788.59;5164956;28;20053;-57
2022/11/10 07:57:33;;;;;;;6.82;2.00;;;11.70;99.90;;;11.95;100.00;101802.22;5164891;28;20620;-60
2022/11/10 08:00:23;;;;;;;6.20;2.03;;;11.80;99.90;;;11.99;100.00;101803.25;5148024;28;20047;-60
2022/11/10 08:03:18;;;;;;;7.53;2.20;;;11.90;99.90;;;12.01;100.00;101805.94;5155736;28;20136;-59
2022/11/10 08:06:09;;;;;;;5.95;2.22;;;11.90;99.90;;;12.01;100.00;101803.34;5139969;28;20066;-59
2022/11/10 08:08:59;;;;;;;6.28;1.80;;;11.90;99.90;;;12.06;100.00;101810.56;5144702;28;20417;-60
2022/11/10 08:11:50;;;;;;;7.25;1.80;;;11.90;99.90;;;12.38;100.00;101816.28;5145469;28;20065;-57
2022/11/10 08:14:40;;;;;;;5.25;2.17;;;12.30;99.90;;;12.84;100.00;101816.53;5144449;28;20062;-58
2022/11/10 08:17:31;;;;;;;6.80;1.45;;;12.90;99.90;;;13.46;100.00;101825.19;5146684;28;20153;-58
2022/11/10 08:20:23;;;;;;;5.60;1.77;;;13.60;99.90;;;13.91;100.00;101825.19;5146657;28;20098;-57
2022/11/10 08:23:13;;;;;;;2.88;1.30;;;14.10;99.90;;;14.26;100.00;101829.09;5146288;28;20089;-57
2022/11/10 08:26:04;;;;;;;7.28;1.77;;;14.50;99.90;;;14.58;100.00;101832.88;5141568;28;20054;-58
2022/11/10 08:28:55;;;;;;;12.07;1.70;;;14.80;99.90;;;14.79;100.00;101833.63;5141508;28;20050;-56
2022/11/10 08:31:45;;;;;;;8.15;1.50;;;15.00;99.90;;;14.91;100.00;101841.00;5142699;28;20091;-57
2022/11/10 08:34:36;;;;;;;6.93;1.70;;;15.10;99.90;;;14.88;100.00;101849.69;5143799;28;20134;-56
2022/11/10 08:37:28;;;;;;;5.25;1.52;;;15.10;99.90;;;14.91;100.00;101848.91;5143610;28;20078;-58
2022/11/10 08:40:22;;;;;;;8.73;1.42;;;15.00;99.90;;;15.03;100.00;101851.03;5139828;28;20410;-57
2022/11/10 08:43:15;;;;;;;7.65;1.35;;;15.10;99.90;;;15.17;100.00;101852.38;5140983;28;20077;-57
2022/11/10 08:46:06;;;;;;;4.68;1.48;;;15.20;99.90;;;15.43;100.00;101861.09;5145952;28;20062;-57
2022/11/10 08:48:56;;;;;;;7.40;1.60;;;15.40;99.90;;;15.63;98.13;101859.13;5144773;28;20051;-58
2022/11/10 08:51:47;;;;;;;6.28;1.40;;;15.60;99.90;;;15.62;96.54;101860.00;5144179;28;20062;-57
2022/11/10 08:54:38;;;;;;;5.18;1.23;;;15.50;99.90;;;15.65;98.33;101873.25;5128024;28;20062;-57
2022/11/10 08:57:29;;;;;;;7.53;2.13;;;15.50;99.90;;;15.88;98.65;101872.19;5141953;28;20089;-57
2022/11/10 09:00:20;;;;;;;10.25;1.75;;;15.70;99.90;;;16.06;97.79;101885.00;5141642;28;20050;-57
2022/11/10 09:03:14;;;;;;;9.20;1.92;;;15.90;99.90;;;16.37;97.34;101884.16;5135275;28;20812;-55
2022/11/10 09:06:05;;;;;;;12.02;1.88;;;16.20;99.90;;;16.58;95.48;101886.50;5145752;28;20183;-57
2022/11/10 09:08:55;;;;;;;7.80;1.52;;;16.40;99.90;;;16.73;94.03;101884.31;5141361;28;20049;-58
2022/11/10 09:11:48;;;;;;;7.72;1.70;;;16.60;99.90;;;16.95;94.04;101880.50;5144704;28;20069;-57
2022/11/10 09:14:39;;;;;;;6.75;1.42;;;16.80;99.90;;;17.16;93.18;101889.81;5143927;28;20339;-56
2022/11/10 09:17:29;;;;;;;3.35;1.23;;;17.00;99.90;;;17.29;91.89;101902.44;5145318;28;20098;-57
2022/11/10 09:20:20;;;;;;;6.90;1.35;;;17.10;99.90;;;17.49;92.06;101900.28;5141264;28;20046;-56
2022/11/10 09:23:13;;;;;;;8.25;1.30;;;17.30;99.90;;;17.64;90.16;101906.81;5140168;28;20062;-56
2022/11/10 09:26:05;;;;;;;4.22;0.93;;;17.40;99.40;;;17.73;89.94;101916.69;5139414;28;20140;-58
2022/11/10 09:28:58;;;;;;;4.60;1.20;;;17.50;99.20;;;17.81;88.77;101914.25;5143679;28;20073;-56
2022/11/10 09:31:48;;;;;;;7.20;1.60;;;17.60;98.90;;;17.94;89.77;101918.97;5145149;28;20079;-58
2022/11/10 09:34:39;;;;;;;5.15;1.33;;;17.70;99.20;;;18.03;88.28;101916.50;5145438;28;20061;-58
2022/11/10 09:37:29;;;;;;;5.95;1.00;;;17.80;98.60;;;18.12;87.44;101914.06;5145166;28;20061;-55
2022/11/10 09:40:24;;;;;;;4.57;1.00;;;17.90;98.20;;;18.12;86.25;101921.97;5134125;28;20137;-57
2022/11/10 09:43:21;;;;;;;2.40;0.70;;;17.80;97.70;;;18.03;85.70;101910.34;5144213;28;20200;-55
2022/11/10 09:46:18;;;;;;;3.00;1.00;;;17.70;97.60;;;17.95;85.61;101922.47;5143646;28;20070;-56
2022/11/10 09:49:30;;;;;;;4.07;1.05;;;17.60;97.70;;;17.87;85.92;101927.59;5144731;28;20058;-57
2022/11/10 09:52:23;;;;;;;8.25;1.25;;;17.50;97.80;;;17.86;84.76;101923.16;5145098;28;20360;-57
2022/11/10 09:55:28;;;;;;;4.60;1.30;;;17.40;97.50;;;17.80;84.76;101928.28;5144942;28;20523;-55
2022/11/10 09:58:21;;;;;;;4.93;1.05;;;17.40;97.40;;;17.82;85.39;101921.31;5144096;28;20057;-55
2022/11/10 10:01:29;;;;;;;4.03;0.80;;;17.40;97.70;;;17.83;84.73;101920.47;5144744;28;20062;-56
2022/11/10 10:04:57;;;;;;;7.28;1.23;;;17.40;97.40;;;17.83;83.73;101937.16;5144721;28;20066;-58
2022/11/10 10:07:56;;;;;;;5.43;0.93;;;17.40;97.10;;;17.77;83.80;101939.66;5144465;28;20188;-55
2022/11/10 10:10:52;;;;;;;4.75;1.33;;;17.30;97.00;;;17.73;83.72;101942.19;5144526;28;20380;-54
2022/11/10 10:14:13;;;;;;;3.65;0.90;;;17.30;96.90;;;17.67;84.83;101936.72;5144454;28;20072;-55
2022/11/10 10:17:16;;;;;;;2.92;0.70;;;17.20;97.40;;;17.72;84.67;101937.75;5144621;28;20069;-56
2022/11/10 10:20:18;;;;;;;2.33;0.90;;;17.30;97.30;;;17.74;85.43;101939.59;5143804;28;20136;-55
2022/11/10 10:23:23;;;;;;;5.07;0.80;;;17.30;97.60;;;17.82;85.15;101947.69;5144550;28;20066;-55
2022/11/10 10:26:17;;;;;;;3.97;0.82;;;17.40;97.50;;;17.87;84.96;101943.41;5144282;28;20415;-55
2022/11/10 10:29:13;;;;;;;5.03;0.90;;;17.40;97.40;;;17.96;84.32;101948.91;5144058;28;20054;-55
2022/11/10 10:32:03;;;;;;;3.78;1.10;;;17.40;97.30;;;18.02;82.59;101946.41;5144481;28;20142;-55
2022/11/10 10:34:56;;;;;;;3.97;0.82;;;17.50;96.60;;;18.02;82.47;101938.47;5144211;28;20059;-55
2022/11/10 10:37:52;;;;;;;4.95;1.10;;;17.50;96.40;;;18.03;82.73;101945.53;5143687;28;20058;-56
2022/11/10 10:40:44;;;;;;;4.97;1.30;;;17.60;96.50;;;18.05;82.63;101951.72;5143741;28;20600;-56
2022/11/10 10:43:34;;;;;;;3.42;1.10;;;17.60;96.50;;;18.11;81.93;101954.50;5144029;28;20054;-55
2022/11/10 10:46:28;;;;;;;4.47;1.00;;;17.60;96.20;;;18.14;81.70;101959.88;5144018;28;20047;-55
2022/11/10 10:49:21;;;;;;;5.63;1.00;;;17.60;96.00;;;18.21;81.84;101952.97;5143509;28;20194;-54
2022/11/10 10:52:19;;;;;;;3.10;0.73;;;17.70;96.00;;;18.26;81.60;101963.66;5143968;28;20062;-55
2022/11/10 10:55:13;;;;;;;1.10;0.60;;;17.80;95.90;;;18.30;81.38;101968.09;5143868;28;20190;-55
2022/11/10 10:58:18;;;;;;;3.13;0.80;;;17.80;95.80;;;18.29;80.81;101961.94;5143674;28;20053;-56
2022/11/10 11:01:29;;;;;;;3.92;0.80;;;17.80;95.40;;;18.24;79.11;101955.66;5143789;28;20090;-56
2022/11/10 11:04:32;;;;;;;2.60;0.70;;;17.80;94.60;;;18.17;78.93;101959.03;5143266;28;20059;-57
2022/11/10 11:07:25;;;;;;;2.10;0.77;;;17.70;94.50;;;18.16;79.22;101947.59;5143831;28;20085;-56
2022/11/10 11:10:22;;;;;;;3.30;1.15;;;17.70;94.60;;;18.20;78.98;101939.75;5143623;28;20181;-55
2022/11/10 11:13:15;;;;;;;2.15;0.93;;;17.70;94.50;;;18.24;79.07;101946.84;5196330;23;20042;-59
2022/11/10 11:16:11;;;;;;;3.53;1.00;;;17.70;94.40;;;18.26;78.39;101945.16;5138300;28;20050;-59
2022/11/10 11:19:01;;;;;;;5.10;1.02;;;17.80;94.20;;;18.23;78.20;101945.97;5123637;29;20054;-59
2022/11/10 11:22:30;;;;;;;2.63;1.25;;;17.80;94.00;;;18.19;78.51;101954.66;5123936;28;20079;-58
2022/11/10 11:25:31;;;;;;;4.10;1.20;;;17.70;94.00;;;18.21;78.85;101952.09;5124109;28;20797;-61
2022/11/10 11:28:27;;;;;;;;;;;17.80;94.10;;;18.27;78.69;101957.50;5131165;28;20077;-59
2022/11/10 11:31:28;;;;;;;6.15;0.90;;;17.80;94.00;;;18.32;77.13;101953.19;5163783;28;19986;-58
2022/11/10 11:34:26;;;;;;;4.07;0.70;;;17.90;93.40;;;18.32;76.94;101971.66;5163705;28;20566;-60
2022/11/10 11:37:23;;;;;;;5.15;1.48;;;17.90;93.20;;;18.30;77.57;101973.38;5163352;28;20150;-58
2022/11/10 11:40:28;;;;;;;4.50;1.00;;;17.80;93.40;;;18.29;77.54;101987.44;5146187;28;20049;-59
2022/11/10 11:43:51;;;;;;;4.88;1.05;;;17.90;93.30;;;18.21;76.80;101989.03;5143345;28;20053;-57
2022/11/10 11:46:47;;;;;;;2.90;0.95;;;17.80;92.90;;;18.13;76.66;101991.50;5136990;28;20527;-59
2022/11/10 11:49:58;;;;;;;4.72;0.80;;;17.70;92.80;;;18.03;76.75;101994.78;5143924;28;20069;-58
2022/11/10 11:53:03;;;;;;;3.00;0.80;;;17.70;92.70;;;18.01;78.23;102007.06;5163372;28;20053;-59
2022/11/10 11:56:17;;;;;;;2.22;0.80;;;17.60;93.30;;;18.00;78.61;101997.34;5163706;28;20105;-59
2022/11/10 11:59:33;;;;;;;3.60;0.85;;;17.60;93.50;;;18.02;78.36;102009.72;5162957;28;20081;-58
2022/11/10 12:02:52;;;;;;;2.63;0.80;;;17.60;93.40;;;18.06;78.18;102011.59;5162821;28;20056;-59
2022/11/10 12:05:58;;;;;;;2.90;1.02;;;17.60;93.40;;;18.06;78.23;102011.59;5163008;28;20188;-58
2022/11/10 12:09:00;;;;;;;4.90;1.30;;;17.70;93.30;;;18.15;78.94;102021.44;5162690;28;20427;-59
2022/11/10 12:12:22;;;;;;;2.78;0.80;;;17.70;93.60;;;18.20;77.97;102022.47;5163249;28;20144;-58
2022/11/10 12:15:29;;;;;;;3.05;1.00;;;17.80;93.30;;;18.24;78.95;102010.19;5162708;28;20423;-58